.
WxDataArchive / Data Records for 2016-05-06
2016-05-05 May 2016 2016-05-07

Data Records for Friday, 06 May 2016

Time	Temp	Chill	HIndex	Humid	Dewpt	 Wind 	HiWind	WindDir	Rain 	Barom
-----	----	-----	------	-----	-----	------	------	-------	-----	-----
00:00	53.8	53.8	53.8	62	41.1	1	6	0	0.00	29.901 
00:05	53.6	53.6	53.6	62	40.9	0	2	0	0.00	29.901 
00:10	53.5	53.5	53.5	62	40.8	0	3	0	0.00	29.901 
00:15	53.3	53.3	53.3	63	41.0	1	4	292	0.00	29.899 
00:20	53.1	53.1	53.1	63	40.8	0	1	292	0.00	29.899 
00:25	52.9	52.9	52.9	64	41.1	0	4	292	0.00	29.899 
00:30	52.8	52.8	52.8	64	41.0	0	2	292	0.00	29.898 
00:35	52.5	52.5	52.5	65	41.1	0	2	292	0.00	29.898 
00:40	52.2	52.2	52.2	65	40.8	0	3	292	0.00	29.898 
00:45	52.0	52.0	52.0	65	40.6	0	3	292	0.00	29.901 
00:50	51.7	51.7	51.7	66	40.7	0	3	292	0.00	29.901 
00:55	51.6	51.6	51.6	66	40.6	0	2	292	0.00	29.901 
01:00	51.3	51.3	51.3	67	40.7	1	3	292	0.00	29.899 
01:05	51.1	51.1	51.1	67	40.5	0	1	292	0.00	29.899 
01:10	51.0	51.0	51.0	68	40.8	0	2	292	0.00	29.899 
01:15	50.8	50.8	50.8	68	40.6	0	2	292	0.00	29.895 
01:20	50.7	50.7	50.7	68	40.5	0	2	292	0.00	29.895 
01:25	50.5	50.5	50.5	69	40.7	0	4	292	0.00	29.895 
01:30	50.4	50.4	50.4	69	40.6	0	1	292	0.00	29.896 
01:35	50.2	50.2	50.2	69	40.4	0	2	292	0.00	29.896 
01:40	50.1	50.1	50.1	69	40.3	0	2	292	0.00	29.896 
01:45	49.9	49.9	49.9	69	40.1	0	2	292	0.00	29.899 
01:50	49.8	49.8	49.8	69	40.0	0	3	292	0.00	29.899 
01:55	49.6	49.6	49.6	70	40.2	0	1	292	0.00	29.899 
02:00	49.5	49.5	49.5	70	40.1	0	2	292	0.00	29.898 
02:05	49.4	49.4	49.4	70	40.0	0	3	292	0.00	29.898 
02:10	49.2	49.2	49.2	70	39.8	0	2	292	0.00	29.898 
02:15	49.2	49.2	49.2	70	39.8	0	3	292	0.00	29.900 
02:20	49.1	49.1	49.1	71	40.1	0	2	292	0.00	29.900 
02:25	48.9	48.9	48.9	71	39.9	0	3	292	0.00	29.900 
02:30	48.9	48.9	48.9	71	39.9	0	1	292	0.00	29.901 
02:35	48.8	48.8	48.8	71	39.8	0	1	292	0.00	29.901 
02:40	48.6	48.6	48.6	71	39.6	0	1	292	0.00	29.901 
02:45	48.3	48.3	48.3	71	39.3	0	2	292	0.00	29.900 
02:50	48.2	48.2	48.2	71	39.2	0	1	292	0.00	29.900 
02:55	48.0	48.0	48.0	71	39.1	0	1	292	0.00	29.900 
03:00	47.9	47.9	47.9	71	39.0	0	1	292	0.00	29.900 
03:05	47.7	47.7	47.7	72	39.1	0	1	292	0.00	29.900 
03:10	47.6	47.6	47.6	72	39.0	0	1	292	0.00	29.900 
03:15	47.4	47.4	47.4	72	38.8	0	1	292	0.00	29.894 
03:20	47.3	47.3	47.3	72	38.7	0	1	292	0.00	29.894 
03:25	47.3	47.3	47.3	71	38.4	0	1	292	0.00	29.894 
03:30	47.1	47.1	47.1	71	38.2	0	1	292	0.00	29.891 
03:35	47.1	47.1	47.1	71	38.2	0	1	292	0.00	29.891 
03:40	47.1	47.1	47.1	70	37.8	0	1	292	0.00	29.891 
03:45	47.1	47.1	47.1	70	37.8	0	1	292	0.00	29.888 
03:50	47.1	47.1	47.1	69	37.5	0	2	292	0.00	29.888 
03:55	47.1	47.1	47.1	69	37.5	0	2	292	0.00	29.888 
04:00	47.3	47.3	47.3	68	37.3	1	3	292	0.00	29.886 
04:05	47.3	47.3	47.3	68	37.3	0	1	292	0.00	29.886 
04:10	47.1	47.1	47.1	68	37.1	0	1	292	0.00	29.886 
04:15	47.0	47.0	47.0	68	37.0	0	1	292	0.00	29.888 
04:20	47.0	47.0	47.0	68	37.0	0	1	292	0.00	29.888 
04:25	46.7	46.7	46.7	69	37.1	0	1	292	0.00	29.888 
04:30	46.5	46.5	46.5	69	36.9	0	1	292	0.00	29.888 
04:35	46.4	46.4	46.4	69	36.8	0	1	292	0.00	29.888 
04:40	46.2	46.2	46.2	70	37.0	0	1	292	0.00	29.888 
04:45	46.1	46.1	46.1	70	36.9	0	1	292	0.00	29.889 
04:50	46.0	46.0	46.0	70	36.8	0	1	292	0.00	29.889 
04:55	46.0	46.0	46.0	70	36.8	0	1	292	0.00	29.889 
05:00	46.0	46.0	46.0	70	36.8	0	2	292	0.00	29.888 
05:05	46.0	46.0	46.0	70	36.8	0	1	292	0.00	29.888 
05:10	46.0	46.0	46.0	70	36.8	0	1	292	0.00	29.888 
05:15	46.0	46.0	46.0	70	36.8	0	1	292	0.00	29.890 
05:20	46.0	46.0	46.0	70	36.8	0	0	---	0.00	29.890 
05:25	45.8	45.8	45.8	70	36.6	0	0	---	0.00	29.890 
05:30	45.8	45.8	45.8	70	36.6	0	0	---	0.00	29.892 
05:35	45.7	45.7	45.7	70	36.5	0	1	292	0.00	29.892 
05:40	45.5	45.5	45.5	70	36.3	0	1	292	0.00	29.892 
05:45	45.4	45.4	45.4	71	36.6	0	0	---	0.00	29.893 
05:50	45.2	45.2	45.2	72	36.7	0	0	---	0.00	29.893 
05:55	44.9	44.9	44.9	72	36.4	0	0	---	0.00	29.893 
06:00	44.8	44.8	44.8	73	36.7	0	0	---	0.00	29.895 
06:05	44.5	44.5	44.5	73	36.4	0	0	---	0.00	29.895 
06:10	44.3	44.3	44.3	74	36.5	0	0	---	0.00	29.895 
06:15	43.9	43.9	43.9	75	36.5	0	1	292	0.00	29.904 
06:20	43.8	43.8	43.8	77	37.1	0	2	292	0.00	29.904 
06:25	44.1	44.1	44.1	76	37.0	0	3	292	0.00	29.904 
06:30	44.5	44.5	44.5	75	37.1	0	1	292	0.00	29.907 
06:35	44.5	44.5	44.5	75	37.1	0	1	292	0.00	29.907 
06:40	44.6	44.6	44.6	74	36.8	0	0	---	0.00	29.907 
06:45	44.6	44.6	44.6	75	37.2	0	1	292	0.00	29.907 
06:50	44.6	44.6	44.6	75	37.2	0	1	292	0.00	29.907 
06:55	44.6	44.6	44.6	74	36.8	0	0	---	0.00	29.907 
07:00	44.6	44.6	44.6	74	36.8	0	1	292	0.00	29.912 
07:05	44.6	44.6	44.6	75	37.2	0	1	292	0.00	29.912 
07:10	44.6	44.6	44.6	75	37.2	0	0	---	0.00	29.912 
07:15	44.8	44.8	44.8	75	37.4	0	1	292	0.00	29.921 
07:20	44.9	44.9	44.9	75	37.5	0	0	---	0.00	29.921 
07:25	45.1	45.1	45.1	75	37.7	0	1	292	0.00	29.921 
07:30	45.2	45.2	45.2	75	37.8	0	0	---	0.00	29.924 
07:35	45.4	45.4	45.4	74	37.6	0	0	---	0.00	29.924 
07:40	45.5	45.5	45.5	74	37.7	0	1	292	0.00	29.924 
07:45	45.8	45.8	45.8	73	37.6	0	1	292	0.00	29.924 
07:50	46.1	46.1	46.1	73	37.9	0	1	292	0.00	29.924 
07:55	46.4	46.4	46.4	72	37.9	0	1	292	0.00	29.924 
08:00	46.8	46.8	46.8	71	37.9	0	0	---	0.00	29.935 
08:05	47.4	47.4	47.4	69	37.7	0	1	292	0.00	29.935 
08:10	47.7	47.7	47.7	69	38.0	0	1	292	0.00	29.935 
08:15	48.0	48.0	48.0	68	37.9	0	1	292	0.00	29.940 
08:20	48.2	48.2	48.2	67	37.8	0	2	292	0.00	29.940 
08:25	48.5	48.5	48.5	69	38.8	0	2	292	0.00	29.940 
08:30	48.6	48.6	48.6	67	38.1	0	1	292	0.00	29.943 
08:35	48.9	48.9	48.9	66	38.0	1	2	292	0.00	29.943 
08:40	49.1	49.1	49.1	66	38.2	0	3	292	0.00	29.943 
08:45	49.4	49.4	49.4	66	38.5	1	3	292	0.00	29.950 
08:50	49.8	49.8	49.8	66	38.9	0	3	292	0.00	29.950 
08:55	50.1	50.1	50.1	66	39.2	0	2	292	0.00	29.950 
09:00	50.5	50.5	50.5	65	39.2	0	1	292	0.00	29.951 
09:05	51.0	51.0	51.0	65	39.7	1	3	292	0.00	29.951 
09:10	51.1	51.1	51.1	64	39.4	1	2	292	0.00	29.951 
09:15	51.6	51.6	51.6	65	40.2	1	2	292	0.00	29.955 
09:20	51.9	51.9	51.9	64	40.1	1	4	292	0.00	29.955 
09:25	52.2	52.2	52.2	63	40.0	1	3	292	0.00	29.955 
09:30	52.5	52.5	52.5	62	39.9	1	4	292	0.00	29.954 
09:35	52.9	52.9	52.9	64	41.1	1	3	292	0.00	29.954 
09:40	53.3	53.3	53.3	63	41.0	1	3	292	0.00	29.954 
09:45	53.9	53.9	53.9	62	41.2	0	2	292	0.00	29.962 
09:50	54.4	54.4	54.4	62	41.7	1	3	292	0.00	29.962 
09:55	54.7	54.7	54.7	60	41.1	1	3	292	0.00	29.962 
10:00	55.3	55.3	55.3	60	41.7	1	3	292	0.00	29.962 
10:05	55.9	55.9	55.9	62	43.1	1	3	292	0.00	29.962 
10:10	56.3	56.3	56.3	59	42.2	1	3	292	0.00	29.962 
10:15	56.7	56.7	56.7	58	42.1	1	3	292	0.00	29.963 
10:20	57.3	57.3	57.3	58	42.6	0	2	292	0.00	29.963 
10:25	57.8	57.8	57.8	58	43.1	0	1	292	0.00	29.963 
10:30	58.1	58.1	58.1	57	42.9	1	4	292	0.00	29.961 
10:35	58.4	58.4	58.4	56	42.8	1	3	292	0.00	29.961 
10:40	58.7	58.7	58.7	56	43.0	1	3	292	0.00	29.961 
10:45	58.9	58.9	58.9	55	42.8	1	3	292	0.00	29.961 
10:50	59.2	59.2	59.2	56	43.5	1	3	292	0.00	29.961 
10:55	59.6	59.6	59.6	54	42.9	1	2	292	0.00	29.961 
11:00	59.9	59.9	59.9	56	44.2	0	2	292	0.00	29.959 
11:05	60.4	60.4	60.4	53	43.2	0	4	292	0.00	29.959 
11:10	60.7	60.7	60.7	52	43.0	1	3	292	0.00	29.959 
11:15	61.5	61.5	61.5	54	44.7	0	2	292	0.00	29.960 
11:20	61.6	61.6	61.6	50	42.8	0	3	292	0.00	29.960 
11:25	62.0	62.0	62.0	50	43.1	0	3	292	0.00	29.960 
11:30	62.6	62.6	62.6	52	44.7	0	2	292	0.00	29.954 
11:35	63.2	63.2	63.2	52	45.3	0	2	292	0.00	29.954 
11:40	63.2	63.2	63.2	50	44.2	1	3	292	0.00	29.954 
11:45	63.4	63.4	63.4	50	44.4	0	1	292	0.00	29.951 
11:50	63.7	63.7	63.7	50	44.7	0	1	292	0.00	29.951 
11:55	64.0	64.0	64.0	48	43.9	0	2	292	0.00	29.951 
12:00	64.3	64.3	64.3	49	44.7	0	3	292	0.00	29.946 
12:05	65.0	65.0	65.0	47	44.3	0	3	292	0.00	29.946 
12:10	65.2	65.2	65.2	48	45.0	0	3	292	0.00	29.946 
12:15	65.0	65.0	65.0	47	44.3	1	2	292	0.00	29.945 
12:20	65.0	65.0	65.0	47	44.3	1	3	292	0.00	29.945 
12:25	64.8	64.8	64.8	48	44.6	1	3	292	0.00	29.945 
12:30	65.5	65.5	65.5	52	47.4	0	1	292	0.00	29.944 
12:35	66.1	66.1	66.1	46	44.7	0	3	292	0.00	29.944 
12:40	66.6	66.6	66.6	48	46.3	0	1	292	0.00	29.944 
12:45	66.6	66.6	66.6	43	43.4	1	5	292	0.00	29.936 
12:50	66.4	66.4	66.4	46	45.0	0	3	68	0.00	29.936 
12:55	66.6	66.6	66.6	43	43.4	0	2	338	0.00	29.936 
13:00	66.9	66.9	66.9	40	41.8	1	3	338	0.00	29.929 
13:05	66.6	66.6	66.6	40	41.5	2	3	292	0.00	29.929 
13:10	66.6	66.6	66.6	41	42.2	1	3	292	0.00	29.929 
13:15	66.8	66.8	66.8	43	43.6	1	3	292	0.00	29.927 
13:20	66.8	66.8	66.8	41	42.3	2	6	270	0.00	29.927 
13:25	66.8	66.8	66.8	40	41.7	1	3	270	0.00	29.927 
13:30	66.9	66.9	66.9	35	38.4	2	4	315	0.00	29.917 
13:35	67.1	67.1	67.1	35	38.5	1	3	315	0.00	29.917 
13:40	67.3	67.3	67.3	39	41.5	1	4	315	0.00	29.917 
13:45	67.6	67.6	67.6	39	41.8	0	2	315	0.00	29.912 
13:50	67.9	67.9	67.9	39	42.0	1	3	315	0.00	29.912 
13:55	67.9	67.9	67.9	35	39.2	1	4	315	0.00	29.912 
14:00	68.1	68.1	68.1	34	38.7	1	4	315	0.00	29.908 
14:05	67.9	67.9	67.9	36	40.0	1	5	292	0.00	29.908 
14:10	68.1	68.1	68.1	35	39.4	0	3	292	0.00	29.908 
14:15	68.8	68.8	68.8	37	41.5	1	5	292	0.00	29.901 
14:20	69.1	69.1	69.1	32	38.0	1	3	292	0.00	29.901 
14:25	69.1	69.1	69.1	34	39.5	1	7	292	0.00	29.901 
14:30	68.9	68.9	68.9	28	34.4	2	5	292	0.00	29.899 
14:35	68.8	68.8	68.8	29	35.2	1	6	315	0.00	29.899 
14:40	68.9	68.9	68.9	28	34.4	1	5	338	0.00	29.899 
14:45	69.1	69.1	69.1	30	36.4	1	3	338	0.00	29.896 
14:50	69.1	69.1	69.1	31	37.2	1	6	338	0.00	29.896 
14:55	69.3	69.3	69.3	27	33.9	2	4	315	0.00	29.896 
15:00	69.3	69.3	69.3	28	34.8	0	2	292	0.00	29.888 
15:05	69.6	69.6	69.6	27	34.1	2	5	315	0.00	29.888 
15:10	69.6	69.6	69.6	29	35.9	2	4	292	0.00	29.888 
15:15	69.6	69.6	69.6	27	34.1	1	5	315	0.00	29.883 
15:20	69.8	69.8	69.8	28	35.2	2	6	270	0.00	29.883 
15:25	69.8	69.8	69.8	24	31.4	1	4	292	0.00	29.883 
15:30	69.8	69.8	69.8	26	33.4	3	10	292	0.00	29.882 
15:35	70.1	70.1	70.1	27	34.6	1	3	292	0.00	29.882 
15:40	70.4	70.4	70.4	27	34.8	1	3	292	0.00	29.882 
15:45	70.9	70.9	70.9	26	34.3	0	3	292	0.00	29.871 
15:50	71.5	71.5	71.5	27	35.8	0	1	292	0.00	29.871 
15:55	71.5	71.5	71.5	25	33.8	1	4	292	0.00	29.871 
16:00	71.3	71.3	71.3	26	34.6	1	4	315	0.00	29.865 
16:05	71.1	71.1	71.1	29	37.2	1	4	315	0.00	29.865 
16:10	70.9	70.9	70.9	28	36.2	2	5	315	0.00	29.865 
16:15	70.9	70.9	70.9	24	32.3	2	5	270	0.00	29.856 
16:20	71.1	71.1	71.1	26	34.5	1	4	292	0.00	29.856 
16:25	71.3	71.3	71.3	26	34.6	0	2	292	0.00	29.856 
16:30	71.5	71.5	71.5	27	35.8	1	3	292	0.00	29.848 
16:35	71.5	71.5	71.5	26	34.8	2	4	292	0.00	29.848 
16:40	71.5	71.5	71.5	27	35.8	1	4	292	0.00	29.848 
16:45	71.5	71.5	71.5	26	34.8	2	6	292	0.00	29.840 
16:50	71.1	71.1	71.1	26	34.5	1	5	338	0.00	29.840 
16:55	71.1	71.1	71.1	28	36.3	2	4	338	0.00	29.840 
17:00	71.3	71.3	71.3	27	35.6	1	3	292	0.00	29.837 
17:05	71.6	71.6	71.6	29	37.6	1	4	292	0.00	29.837 
17:10	71.6	71.6	71.6	30	38.5	1	3	315	0.00	29.837 
17:15	72.0	72.0	72.0	27	36.2	1	3	315	0.00	29.835 
17:20	72.1	72.1	72.1	27	36.3	1	3	315	0.00	29.835 
17:25	72.1	72.1	72.1	28	37.2	2	4	292	0.00	29.835 
17:30	71.8	71.8	71.8	28	36.9	1	5	315	0.00	29.834 
17:35	72.0	72.0	72.0	28	37.1	0	2	315	0.00	29.834 
17:40	72.3	72.3	72.3	26	35.5	1	2	315	0.00	29.834 
17:45	72.5	72.5	72.5	28	37.5	1	3	315	0.00	29.826 
17:50	72.5	72.5	72.5	28	37.5	1	3	315	0.00	29.826 
17:55	72.3	72.3	72.3	27	36.4	1	2	315	0.00	29.826 
18:00	72.0	72.0	72.0	27	36.2	1	4	315	0.00	29.825 
18:05	71.6	71.6	71.6	26	34.9	1	4	315	0.00	29.825 
18:10	71.6	71.6	71.6	27	35.8	0	2	292	0.00	29.825 
18:15	71.6	71.6	71.6	27	35.8	2	5	315	0.00	29.824 
18:20	71.3	71.3	71.3	27	35.6	1	2	315	0.00	29.824 
18:25	71.1	71.1	71.1	28	36.3	1	4	315	0.00	29.824 
18:30	71.1	71.1	71.1	28	36.3	1	4	315	0.00	29.821 
18:35	71.1	71.1	71.1	29	37.2	1	2	315	0.00	29.821 
18:40	71.1	71.1	71.1	28	36.3	1	3	315	0.00	29.821 
18:45	71.1	71.1	71.1	29	37.2	1	3	315	0.00	29.819 
18:50	71.1	71.1	71.1	28	36.3	1	3	315	0.00	29.819 
18:55	70.9	70.9	70.9	29	37.0	1	3	315	0.00	29.819 
19:00	70.8	70.8	70.8	30	37.8	1	3	315	0.00	29.817 
19:05	70.8	70.8	70.8	29	37.0	1	3	315	0.00	29.817 
19:10	70.6	70.6	70.6	29	36.8	1	2	315	0.00	29.817 
19:15	70.4	70.4	70.4	31	38.3	0	3	315	0.00	29.814 
19:20	70.4	70.4	70.4	30	37.5	1	2	315	0.00	29.814 
19:25	70.4	70.4	70.4	30	37.5	1	2	315	0.00	29.814 
19:30	70.3	70.3	70.3	31	38.2	1	3	315	0.00	29.814 
19:35	70.3	70.3	70.3	31	38.2	0	1	315	0.00	29.814 
19:40	70.1	70.1	70.1	31	38.1	1	3	315	0.00	29.814 
19:45	70.1	70.1	70.1	31	38.1	1	3	315	0.00	29.814 
19:50	69.9	69.9	69.9	32	38.7	0	1	315	0.00	29.814 
19:55	69.9	69.9	69.9	34	40.2	0	1	315	0.00	29.814 
20:00	69.6	69.6	69.6	33	39.2	0	1	315	0.00	29.813 
20:05	69.4	69.4	69.4	33	39.0	0	1	315	0.00	29.813 
20:10	69.4	69.4	69.4	34	39.8	0	1	315	0.00	29.813 
20:15	69.3	69.3	69.3	35	40.5	0	0	---	0.00	29.805 
20:20	69.1	69.1	69.1	36	41.0	0	0	---	0.00	29.805 
20:25	68.8	68.8	68.8	37	41.5	0	0	---	0.00	29.805 
20:30	68.3	68.3	68.3	37	41.0	0	0	---	0.00	29.805 
20:35	67.6	67.6	67.6	37	40.4	0	0	---	0.00	29.805 
20:40	67.1	67.1	67.1	38	40.6	0	0	---	0.00	29.805 
20:45	66.4	66.4	66.4	41	42.0	0	0	---	0.00	29.805 
20:50	65.6	65.6	65.6	42	41.9	0	0	---	0.00	29.805 
20:55	65.0	65.0	65.0	43	42.0	0	0	---	0.00	29.805 
21:00	64.3	64.3	64.3	44	41.9	0	0	---	0.00	29.804 
21:05	63.7	63.7	63.7	45	42.0	0	0	---	0.00	29.804 
21:10	63.1	63.1	63.1	47	42.5	0	0	---	0.00	29.804 
21:15	62.4	62.4	62.4	50	43.5	0	0	---	0.00	29.801 
21:20	61.8	61.8	61.8	50	43.0	0	0	---	0.00	29.801 
21:25	61.2	61.2	61.2	51	42.9	0	0	---	0.00	29.801 
21:30	60.7	60.7	60.7	53	43.5	0	0	---	0.00	29.803 
21:35	60.2	60.2	60.2	54	43.5	0	0	---	0.00	29.803 
21:40	59.8	59.8	59.8	56	44.1	0	0	---	0.00	29.803 
21:45	59.5	59.5	59.5	57	44.3	0	0	---	0.00	29.804 
21:50	59.0	59.0	59.0	58	44.2	0	0	---	0.00	29.804 
21:55	58.7	58.7	58.7	59	44.4	0	0	---	0.00	29.804 
22:00	58.3	58.3	58.3	60	44.5	0	0	---	0.00	29.805 
22:05	58.0	58.0	58.0	59	43.8	0	0	---	0.00	29.805 
22:10	57.6	57.6	57.6	62	44.7	0	0	---	0.00	29.805 
22:15	57.3	57.3	57.3	62	44.4	0	0	---	0.00	29.803 
22:20	56.9	56.9	56.9	63	44.4	0	0	---	0.00	29.803 
22:25	56.5	56.5	56.5	63	44.1	0	0	---	0.00	29.803 
22:30	56.2	56.2	56.2	64	44.2	0	0	---	0.00	29.803 
22:35	55.9	55.9	55.9	65	44.3	0	0	---	0.00	29.803 
22:40	55.7	55.7	55.7	66	44.5	0	0	---	0.00	29.803 
22:45	55.4	55.4	55.4	67	44.6	0	0	---	0.00	29.803 
22:50	55.1	55.1	55.1	68	44.7	0	0	---	0.00	29.803 
22:55	55.0	55.0	55.0	68	44.6	0	0	---	0.00	29.803 
23:00	54.8	54.8	54.8	69	44.8	0	0	---	0.00	29.802 
23:05	54.5	54.5	54.5	69	44.5	0	0	---	0.00	29.802 
23:10	54.4	54.4	54.4	70	44.8	0	0	---	0.00	29.802 
23:15	54.4	54.4	54.4	69	44.4	0	1	315	0.00	29.798 
23:20	54.2	54.2	54.2	70	44.6	0	0	---	0.00	29.798 
23:25	54.1	54.1	54.1	70	44.5	0	0	---	0.00	29.798 
23:30	53.9	53.9	53.9	71	44.7	0	0	---	0.00	29.789 
23:35	53.9	53.9	53.9	72	45.1	0	0	---	0.00	29.789 
23:40	53.8	53.8	53.8	73	45.3	0	0	---	0.00	29.789 
23:45	53.6	53.6	53.6	73	45.2	0	0	---	0.00	29.786 
23:50	53.6	53.6	53.6	73	45.2	0	0	---	0.00	29.786 
23:55	53.5	53.5	53.5	73	45.1	0	0	---	0.00	29.786 

CoCoRaHS
IN-AL-39
A2 Web Hosting
Creative Commons License
GoDaddy
search engine by freefind advanced

loaded 2018-11-20 14:58:20 • last modified 2010-11-18 10:43:29
Privacy PolicyDisclaimer
• wx.awcolley.com is powered by PmWiki v.2002016 •
• all content (unless otherwise noted) © 2018 A W Colley